createdAt,value
2018-11-28T00:00:14.941Z,98042.47
2018-11-28T00:02:43.450Z,98046.92
2018-11-28T00:05:13.198Z,98048.19
2018-11-28T00:07:42.162Z,98046.84
2018-11-28T00:10:12.639Z,98044.94
2018-11-28T00:12:41.516Z,98041.96
2018-11-28T00:15:11.452Z,98048.00
2018-11-28T00:17:39.955Z,98042.36
2018-11-28T00:20:12.628Z,98044.50
2018-11-28T00:22:41.223Z,98046.42
2018-11-28T00:25:10.627Z,98041.40
2018-11-28T00:27:39.156Z,98038.39
2018-11-28T00:30:10.333Z,98044.88
2018-11-28T00:32:38.832Z,98047.69
2018-11-28T00:35:08.773Z,98050.01
2018-11-28T00:37:37.277Z,98047.92
2018-11-28T00:40:06.382Z,98057.11
2018-11-28T00:42:34.935Z,98059.14
2018-11-28T00:45:03.434Z,98060.06
2018-11-28T00:47:31.938Z,98053.88
2018-11-28T00:50:00.427Z,98054.43
2018-11-28T00:52:28.950Z,98061.70
2018-11-28T00:54:57.470Z,98059.23
2018-11-28T00:57:26.019Z,98062.06
2018-11-28T00:59:54.544Z,98056.03
2018-11-28T01:02:23.060Z,98058.89
2018-11-28T01:04:51.556Z,98059.28
2018-11-28T01:07:20.073Z,98063.17
2018-11-28T01:09:48.557Z,98074.84
2018-11-28T01:12:17.094Z,98071.86
2018-11-28T01:14:45.593Z,98076.99
2018-11-28T01:17:14.105Z,98082.68
2018-11-28T01:19:42.621Z,98083.20
2018-11-28T01:22:11.116Z,98085.16
2018-11-28T01:24:39.629Z,98089.22
2018-11-28T01:27:08.146Z,98089.22
2018-11-28T01:29:36.663Z,98090.13
2018-11-28T01:32:05.212Z,98086.06
2018-11-28T01:34:33.714Z,98093.33
2018-11-28T01:37:02.264Z,98089.82
2018-11-28T01:39:30.767Z,98094.23
2018-11-28T01:41:59.295Z,98099.36
2018-11-28T01:44:27.813Z,98101.84
2018-11-28T01:46:56.342Z,98095.84
2018-11-28T01:49:24.854Z,98094.05
2018-11-28T01:51:53.381Z,98093.84
2018-11-28T01:54:21.885Z,98099.64
2018-11-28T01:56:50.405Z,98103.53
2018-11-28T01:59:18.917Z,98102.13
2018-11-28T02:01:47.425Z,98108.88
2018-11-28T02:04:15.926Z,98110.67
2018-11-28T02:06:44.438Z,98104.83
2018-11-28T02:09:12.949Z,98101.48
2018-11-28T02:11:41.437Z,98106.28
2018-11-28T02:14:09.974Z,98109.11
2018-11-28T02:16:38.482Z,98112.13
2018-11-28T02:19:07.049Z,98103.45
2018-11-28T02:21:35.578Z,98100.59
2018-11-28T02:24:04.104Z,98105.77
2018-11-28T02:26:32.614Z,98104.87
2018-11-28T02:29:01.113Z,98103.80
2018-11-28T02:31:29.633Z,98108.89
2018-11-28T02:33:58.187Z,98108.72
2018-11-28T02:36:26.708Z,98110.34
2018-11-28T02:38:55.208Z,98103.46
2018-11-28T02:41:23.726Z,98105.95
2018-11-28T02:43:52.241Z,98110.73
2018-11-28T02:46:29.982Z,98110.42
2018-11-28T02:48:58.533Z,98104.27
2018-11-28T02:51:27.058Z,98103.02
2018-11-28T02:53:55.587Z,98106.40
2018-11-28T02:56:24.093Z,98112.63
2018-11-28T02:58:52.604Z,98117.95
2018-11-28T03:01:21.113Z,98119.36
2018-11-28T03:03:49.645Z,98124.14
2018-11-28T03:06:18.151Z,98126.07
2018-11-28T03:08:46.643Z,98135.44
2018-11-28T03:11:15.145Z,98141.27
2018-11-28T03:13:43.654Z,98138.41
2018-11-28T03:16:18.820Z,98135.76
2018-11-28T03:18:47.911Z,98139.13
2018-11-28T03:21:16.548Z,98138.78
2018-11-28T03:23:45.112Z,98147.28
2018-11-28T03:26:13.624Z,98144.98
2018-11-28T03:28:42.110Z,98151.17
2018-11-28T03:31:10.638Z,98148.00
2018-11-28T03:33:39.159Z,98152.61
2018-11-28T03:36:07.693Z,98151.91
2018-11-28T03:38:36.221Z,98153.15
2018-11-28T03:41:04.739Z,98157.20
2018-11-28T03:43:33.240Z,98156.70
2018-11-28T03:46:01.752Z,98160.93
2018-11-28T03:48:30.253Z,98161.83
2018-11-28T03:51:00.507Z,98159.00
2018-11-28T03:53:27.371Z,98162.53
2018-11-28T03:55:55.903Z,98161.30
2018-11-28T03:58:24.443Z,98171.03
2018-11-28T04:00:52.951Z,98166.08
2018-11-28T04:03:21.478Z,98169.45
2018-11-28T04:05:49.966Z,98163.42
2018-11-28T04:08:18.467Z,98165.73
2018-11-28T04:10:47.002Z,98171.57
2018-11-28T04:13:15.493Z,98166.61
2018-11-28T04:15:44.037Z,98167.88
2018-11-28T04:18:12.552Z,98169.27
2018-11-28T04:20:41.046Z,98165.21
2018-11-28T04:23:09.538Z,98167.17
2018-11-28T04:25:38.049Z,98173.01
2018-11-28T04:28:06.559Z,98170.52
2018-11-28T04:30:35.130Z,98174.23
2018-11-28T04:33:03.612Z,98174.78
2018-11-28T04:35:32.123Z,98183.43
2018-11-28T04:38:00.625Z,98177.23
2018-11-28T04:40:29.156Z,98179.70
2018-11-28T04:42:57.665Z,98178.84
2018-11-28T04:45:26.221Z,98183.62
2018-11-28T04:47:55.638Z,98180.06
2018-11-28T04:50:24.161Z,98182.02
2018-11-28T04:52:52.678Z,98187.48
2018-11-28T04:55:21.450Z,98183.59
2018-11-28T04:57:50.141Z,98185.20
2018-11-28T05:00:20.727Z,98180.94
2018-11-28T05:02:49.400Z,98184.13
2018-11-28T05:05:18.082Z,98186.61
2018-11-28T05:07:47.458Z,98180.92
2018-11-28T05:10:17.686Z,98183.94
2018-11-28T05:12:46.269Z,98181.80
2018-11-28T05:15:16.869Z,98185.00
2018-11-28T05:17:46.515Z,98181.45
2018-11-28T05:20:15.987Z,98172.61
2018-11-28T05:22:44.495Z,98163.77
2018-11-28T05:25:14.549Z,98168.38
2018-11-28T05:27:43.055Z,98178.09
2018-11-28T05:30:15.740Z,98181.11
2018-11-28T05:32:44.241Z,98178.11
2018-11-28T05:35:23.647Z,98185.88
2018-11-28T05:37:52.161Z,98188.71
2018-11-28T05:40:21.719Z,98184.48
2018-11-28T05:42:50.228Z,98193.66
2018-11-28T05:45:18.785Z,98190.47
2018-11-28T05:47:47.307Z,98200.02
2018-11-28T05:50:16.958Z,98202.84
2018-11-28T05:52:45.479Z,98210.46
2018-11-28T05:55:14.834Z,98199.15
2018-11-28T05:57:44.098Z,98193.30
2018-11-28T06:00:43.760Z,98200.39
2018-11-28T06:03:13.182Z,98206.21
2018-11-28T06:05:42.453Z,98210.45
2018-11-28T06:08:10.961Z,98207.81
2018-11-28T06:10:39.471Z,98212.38
2018-11-28T06:13:08.027Z,98209.91
2018-11-28T06:15:36.601Z,98220.87
2018-11-28T06:18:05.144Z,98219.27
2018-11-28T06:20:33.717Z,98224.40
2018-11-28T06:23:02.192Z,98224.05
2018-11-28T06:25:30.719Z,98226.69
2018-11-28T06:27:59.229Z,98226.52
2018-11-28T06:30:27.745Z,98230.24
2018-11-28T06:32:56.257Z,98235.53
2018-11-28T06:35:24.759Z,98236.97
2018-11-28T06:37:53.286Z,98237.90
2018-11-28T06:40:24.275Z,98235.73
2018-11-28T06:42:50.374Z,98242.08
2018-11-28T06:45:21.125Z,98247.37
2018-11-28T06:47:49.655Z,98251.27
2018-11-28T06:50:19.122Z,98254.80
2018-11-28T06:52:49.694Z,98250.08
2018-11-28T06:55:19.461Z,98256.64
2018-11-28T06:57:47.982Z,98262.12
2018-11-28T07:00:23.528Z,98258.06
2018-11-28T07:02:53.798Z,98256.29
2018-11-28T07:05:23.118Z,98266.46
2018-11-28T07:07:51.933Z,98260.25
2018-11-28T07:10:21.408Z,98265.39
2018-11-28T07:12:49.910Z,98263.42
2018-11-28T07:15:19.731Z,98270.16
2018-11-28T07:17:48.255Z,98274.05
2018-11-28T07:20:17.303Z,98275.28
2018-11-28T07:22:45.893Z,98276.70
2018-11-28T07:25:15.491Z,98278.12
2018-11-28T07:27:45.336Z,98285.72
2018-11-28T07:30:21.444Z,98289.80
2018-11-28T07:32:51.273Z,98288.40
2018-11-28T07:35:19.892Z,98292.13
2018-11-28T07:37:48.413Z,98284.52
2018-11-28T07:40:22.038Z,98287.35
2018-11-28T07:43:09.664Z,98293.04
2018-11-28T07:45:39.541Z,98303.30
2018-11-28T07:48:08.034Z,98302.41
2018-11-28T07:50:36.598Z,98304.56
2018-11-28T07:53:05.226Z,98307.91
2018-11-28T07:55:33.747Z,98310.23
2018-11-28T07:58:02.239Z,98311.83
2018-11-28T08:00:30.817Z,98310.95
2018-11-28T08:02:59.344Z,98309.17
2018-11-28T08:05:27.868Z,98315.39
2018-11-28T08:07:56.365Z,98311.13
2018-11-28T08:10:25.855Z,98307.94
2018-11-28T08:12:55.435Z,98307.94
2018-11-28T08:15:23.970Z,98309.36
2018-11-28T08:17:52.555Z,98311.85
2018-11-28T08:20:21.089Z,98303.72
2018-11-28T08:22:49.587Z,98305.84
2018-11-28T08:25:18.443Z,98303.36
2018-11-28T08:27:48.053Z,98309.56
2018-11-28T08:30:17.794Z,98310.10
2018-11-28T08:32:46.312Z,98315.23
2018-11-28T08:35:14.882Z,98314.02
2018-11-28T08:37:43.373Z,98321.61
2018-11-28T08:40:14.053Z,98324.97
2018-11-28T08:42:42.605Z,98328.71
2018-11-28T08:45:12.825Z,98327.11
2018-11-28T08:47:41.322Z,98324.44
2018-11-28T08:50:12.505Z,98326.21
2018-11-28T08:52:41.010Z,98329.91
2018-11-28T08:55:11.089Z,98322.47
2018-11-28T08:57:39.593Z,98329.94
2018-11-28T09:00:15.433Z,98332.59
2018-11-28T09:02:44.157Z,98338.42
2018-11-28T09:05:13.299Z,98337.53
2018-11-28T09:07:41.806Z,98337.70
2018-11-28T09:10:13.468Z,98347.25
2018-11-28T09:12:41.985Z,98351.34
2018-11-28T09:15:21.372Z,98343.04
2018-11-28T09:17:49.860Z,98349.59
2018-11-28T09:20:18.380Z,98349.59
2018-11-28T09:22:46.877Z,98348.70
2018-11-28T09:25:16.355Z,98347.09
2018-11-28T09:27:49.767Z,98354.87
2018-11-28T09:30:19.032Z,98355.75
2018-11-28T09:32:48.334Z,98358.94
2018-11-28T09:35:17.059Z,98358.39
2018-11-28T09:37:46.180Z,98357.50
2018-11-28T09:40:28.637Z,98364.20
2018-11-28T09:42:59.217Z,98364.38
2018-11-28T09:45:27.943Z,98360.61
2018-11-28T09:47:56.432Z,98365.55
2018-11-28T09:50:25.980Z,98360.53
2018-11-28T09:52:54.532Z,98367.94
2018-11-28T09:55:24.910Z,98364.33
2018-11-28T09:57:53.485Z,98358.02
2018-11-28T10:00:27.132Z,98360.82
2018-11-28T10:02:56.915Z,98361.65
2018-11-28T10:05:27.761Z,98364.97
2018-11-28T10:07:56.317Z,98363.48
2018-11-28T10:10:24.822Z,98357.94
2018-11-28T10:12:53.362Z,98354.37
2018-11-28T10:15:24.042Z,98358.55
2018-11-28T10:17:52.581Z,98362.08
2018-11-28T10:20:21.206Z,98359.59
2018-11-28T10:22:50.803Z,98352.88
2018-11-28T10:25:20.316Z,98352.30
2018-11-28T10:27:51.126Z,98344.45
2018-11-28T10:30:21.749Z,98352.73
2018-11-28T10:32:50.982Z,98350.23
2018-11-28T10:35:19.491Z,98354.97
2018-11-28T10:37:47.998Z,98351.05
2018-11-28T10:40:18.279Z,98351.72
2018-11-28T10:42:47.990Z,98357.52
2018-11-28T10:45:17.721Z,98387.37
2018-11-28T10:47:46.213Z,98355.69
2018-11-28T10:50:15.446Z,98348.91
2018-11-28T10:52:44.024Z,98348.57
2018-11-28T10:55:19.410Z,98351.05
2018-11-28T10:57:47.914Z,98361.09
2018-11-28T11:00:29.554Z,98355.61
2018-11-28T11:03:03.250Z,98352.41
2018-11-28T11:05:37.106Z,98346.52
2018-11-28T11:08:11.191Z,98341.69
2018-11-28T11:10:44.911Z,98348.91
2018-11-28T11:13:18.482Z,98344.48
2018-11-28T11:15:52.281Z,98339.27
2018-11-28T11:18:20.970Z,98341.84
2018-11-28T11:20:49.478Z,98342.13
2018-11-28T11:23:17.981Z,98348.75
2018-11-28T11:25:46.476Z,98336.76
2018-11-28T11:28:15.000Z,98332.36
2018-11-28T11:30:43.619Z,98334.79
2018-11-28T11:33:12.166Z,98338.81
2018-11-28T11:35:41.002Z,98334.31
2018-11-28T11:38:09.552Z,98334.95
2018-11-28T11:40:38.040Z,98330.98
2018-11-28T11:43:06.790Z,98325.63
2018-11-28T11:45:35.347Z,98325.97
2018-11-28T11:48:03.846Z,98331.88
2018-11-28T11:50:32.363Z,98330.52
2018-11-28T11:53:00.853Z,98335.30
2018-11-28T11:55:29.366Z,98333.69
2018-11-28T11:57:57.912Z,98326.03
2018-11-28T12:00:27.237Z,98324.08
2018-11-28T12:03:01.362Z,98330.40
2018-11-28T12:05:29.866Z,98339.52
2018-11-28T12:07:58.365Z,98333.23
2018-11-28T12:10:26.873Z,98323.50
2018-11-28T12:12:55.398Z,98329.41
2018-11-28T12:15:23.897Z,98332.16
2018-11-28T12:17:52.563Z,98325.99
2018-11-28T12:20:27.890Z,98338.78
2018-11-28T12:22:56.633Z,98342.88
2018-11-28T12:25:25.561Z,98335.30
2018-11-28T12:27:54.182Z,98337.06
2018-11-28T12:30:22.805Z,98341.06
2018-11-28T12:32:51.426Z,98335.80
2018-11-28T12:35:20.450Z,98333.55
2018-11-28T12:37:49.076Z,98328.30
2018-11-28T12:40:17.970Z,98334.57
2018-11-28T12:42:50.156Z,98336.73
2018-11-28T12:45:19.942Z,98333.78
2018-11-28T12:47:48.894Z,98336.99
2018-11-28T12:50:20.182Z,98340.16
2018-11-28T12:52:48.927Z,98331.68
2018-11-28T12:55:18.409Z,98333.44
2018-11-28T12:57:47.164Z,98331.64
2018-11-28T13:00:16.879Z,98335.06
2018-11-28T13:02:45.517Z,98336.48
2018-11-28T13:05:17.237Z,98341.13
2018-11-28T13:07:45.892Z,98336.89
2018-11-28T13:10:20.827Z,98335.48
2018-11-28T13:12:51.166Z,98340.62
2018-11-28T13:15:21.336Z,98339.20
2018-11-28T13:17:49.979Z,98337.45
2018-11-28T13:20:19.743Z,98345.95
2018-11-28T13:22:49.869Z,98339.41
2018-11-28T13:25:20.294Z,98336.92
2018-11-28T13:27:48.848Z,98334.48
2018-11-28T13:30:19.501Z,98335.20
2018-11-28T13:32:48.721Z,98327.92
2018-11-28T13:35:32.980Z,98335.71
2018-11-28T13:38:07.806Z,98328.09
2018-11-28T13:40:37.253Z,98330.44
2018-11-28T13:43:06.265Z,98332.38
2018-11-28T13:45:38.583Z,98337.52
2018-11-28T13:48:07.224Z,98339.66
2018-11-28T13:50:35.918Z,98340.74
2018-11-28T13:53:09.120Z,98343.39
2018-11-28T13:55:42.985Z,98343.75
2018-11-28T13:58:11.562Z,98348.53
2018-11-28T14:00:40.153Z,98345.88
2018-11-28T14:03:08.813Z,98343.75
2018-11-28T14:05:37.482Z,98349.95
2018-11-28T14:08:06.661Z,98352.61
2018-11-28T14:10:35.373Z,98349.93
2018-11-28T14:13:04.125Z,98349.58
2018-11-28T14:15:32.839Z,98347.98
2018-11-28T14:18:04.300Z,98356.28
2018-11-28T14:20:32.964Z,98347.78
2018-11-28T14:23:01.494Z,98361.20
2018-11-28T14:25:30.218Z,98364.58
2018-11-28T14:27:58.901Z,98370.19
2018-11-28T14:30:27.385Z,98372.83
2018-11-28T14:32:55.868Z,98364.52
2018-11-28T14:35:24.608Z,98365.56
2018-11-28T14:37:53.430Z,98361.33
2018-11-28T14:40:23.018Z,98366.44
2018-11-28T14:42:54.116Z,98368.03
2018-11-28T14:45:22.866Z,98373.36
2018-11-28T14:47:52.234Z,98372.13
2018-11-28T14:50:23.841Z,98369.23
2018-11-28T14:52:53.229Z,98369.93
2018-11-28T14:55:22.898Z,98372.06
2018-11-28T14:57:51.657Z,98371.33
2018-11-28T15:00:25.979Z,98381.96
2018-11-28T15:02:55.982Z,98384.80
2018-11-28T15:06:34.649Z,98386.17
2018-11-28T15:09:08.299Z,98377.90
2018-11-28T15:11:36.813Z,98378.29
2018-11-28T15:14:05.320Z,98380.97
2018-11-28T15:16:33.849Z,98384.45
2018-11-28T15:19:02.379Z,98382.14
2018-11-28T15:21:31.028Z,98382.67
2018-11-28T15:23:59.815Z,98381.45
2018-11-28T15:26:28.585Z,98386.56
2018-11-28T15:28:57.278Z,98388.84
2018-11-28T15:31:25.854Z,98385.13
2018-11-28T15:33:54.694Z,98390.58
2018-11-28T15:36:23.378Z,98391.95
2018-11-28T15:38:52.152Z,98397.11
2018-11-28T15:41:21.097Z,98399.05
2018-11-28T15:43:49.751Z,98396.08
2018-11-28T15:46:18.469Z,98394.11
2018-11-28T15:48:47.112Z,98391.63
2018-11-28T15:51:15.636Z,98399.37
2018-11-28T15:53:44.193Z,98403.08
2018-11-28T15:56:12.814Z,98403.05
2018-11-28T15:58:41.326Z,98408.87
2018-11-28T16:01:09.875Z,98408.84
2018-11-28T16:03:38.373Z,98411.16
2018-11-28T16:06:07.884Z,98410.97
2018-11-28T16:08:36.402Z,98407.84
2018-11-28T16:11:08.426Z,98406.89
2018-11-28T16:13:37.025Z,98405.81
2018-11-28T16:16:06.400Z,98405.31
2018-11-28T16:18:34.918Z,98408.00
2018-11-28T16:21:03.414Z,98408.06
2018-11-28T16:23:31.923Z,98407.19
2018-11-28T16:26:00.427Z,98399.95
2018-11-28T16:28:28.929Z,98398.31
2018-11-28T16:30:57.458Z,98405.58
2018-11-28T16:33:25.970Z,98402.61
2018-11-28T16:35:54.492Z,98404.31
2018-11-28T16:38:23.019Z,98410.32
2018-11-28T16:40:51.514Z,98406.27
2018-11-28T16:43:20.060Z,98408.95
2018-11-28T16:45:48.577Z,98409.48
2018-11-28T16:48:17.091Z,98411.92
2018-11-28T16:50:45.594Z,98411.23
2018-11-28T16:53:14.123Z,98419.41
2018-11-28T16:55:42.642Z,98417.14
2018-11-28T16:58:11.150Z,98416.46
2018-11-28T17:00:41.307Z,98415.41
2018-11-28T17:03:09.811Z,98424.06
2018-11-28T17:05:38.510Z,98428.70
2018-11-28T17:08:08.671Z,98426.02
2018-11-28T17:10:37.190Z,98424.04
2018-11-28T17:13:06.068Z,98427.78
2018-11-28T17:15:34.558Z,98422.69
2018-11-28T17:18:03.064Z,98423.72
2018-11-28T17:20:32.567Z,98431.68
2018-11-28T17:23:01.061Z,98425.46
2018-11-28T17:25:30.808Z,98428.98
2018-11-28T17:27:59.437Z,98426.52
2018-11-28T17:30:29.014Z,98429.89
2018-11-28T17:32:57.560Z,98432.14
2018-11-28T17:35:26.054Z,98424.94
2018-11-28T17:37:54.710Z,98421.25
2018-11-28T17:40:26.122Z,98416.84
2018-11-28T17:42:55.834Z,98419.84
2018-11-28T17:45:24.534Z,98409.92
2018-11-28T17:47:53.141Z,98408.16
2018-11-28T17:50:23.626Z,98413.24
2018-11-28T17:53:04.502Z,98401.53
2018-11-28T17:55:35.769Z,98402.79
2018-11-28T17:58:04.267Z,98403.32
2018-11-28T18:00:32.803Z,98401.84
2018-11-28T18:03:01.512Z,98404.37
2018-11-28T18:05:30.044Z,98405.63
2018-11-28T18:07:58.569Z,98414.66
2018-11-28T18:10:27.112Z,98418.03
2018-11-28T18:13:30.611Z,98423.70
2018-11-28T18:15:59.136Z,98415.90
2018-11-28T18:18:27.629Z,98426.35
2018-11-28T18:20:56.151Z,98413.77
2018-11-28T18:23:24.690Z,98425.59
2018-11-28T18:25:53.235Z,98425.20
2018-11-28T18:28:21.759Z,98423.94
2018-11-28T18:30:50.258Z,98413.84
2018-11-28T18:33:18.759Z,98409.58
2018-11-28T18:35:47.261Z,98410.76
2018-11-28T18:38:15.778Z,98412.98
2018-11-28T18:40:44.294Z,98414.11
2018-11-28T18:43:13.370Z,98414.48
2018-11-28T18:45:50.349Z,98417.30
2018-11-28T18:48:18.861Z,98412.50
2018-11-28T18:50:47.430Z,98410.14
2018-11-28T18:53:16.005Z,98401.45
2018-11-28T18:55:44.552Z,98407.81
2018-11-28T18:58:14.409Z,98402.83
2018-11-28T19:00:42.944Z,98398.75
2018-11-28T19:03:11.481Z,98400.84
2018-11-28T19:05:40.015Z,98407.02
2018-11-28T19:08:08.905Z,98412.87
2018-11-28T19:10:37.449Z,98410.39
2018-11-28T19:13:05.988Z,98409.30
2018-11-28T19:15:34.502Z,98410.25
2018-11-28T19:18:03.877Z,98415.79
2018-11-28T19:20:32.422Z,98412.65
2018-11-28T19:23:00.917Z,98413.77
2018-11-28T19:25:29.950Z,98363.62
2018-11-28T19:27:58.475Z,98404.62
2018-11-28T19:30:35.304Z,98408.19
2018-11-28T19:33:03.831Z,98402.59
2018-11-28T19:35:32.339Z,98407.17
2018-11-28T19:38:00.932Z,98393.37
2018-11-28T19:40:39.466Z,98391.96
2018-11-28T19:43:07.982Z,98394.13
2018-11-28T19:45:36.526Z,98392.36
2018-11-28T19:48:05.374Z,98400.30
2018-11-28T19:50:34.959Z,98403.77
2018-11-28T19:53:03.475Z,98400.13
2018-11-28T19:55:32.007Z,98394.30
2018-11-28T19:58:00.507Z,98396.44
2018-11-28T20:00:29.032Z,98393.26
2018-11-28T20:02:57.534Z,98391.84
2018-11-28T20:05:26.044Z,98384.05
2018-11-28T20:07:54.682Z,98400.67
2018-11-28T20:10:23.759Z,98402.09
2018-11-28T20:12:52.352Z,98396.81
2018-11-28T20:15:23.077Z,98398.08
2018-11-28T20:17:51.800Z,98405.81
2018-11-28T20:20:20.871Z,98407.27
2018-11-28T20:22:49.491Z,98409.39
2018-11-28T20:25:19.074Z,98418.09
2018-11-28T20:27:49.905Z,98416.32
2018-11-28T20:30:19.997Z,98408.89
2018-11-28T20:32:48.498Z,98408.19
2018-11-28T20:35:17.024Z,98417.03
2018-11-28T20:37:45.573Z,98422.70
2018-11-28T20:40:16.133Z,98416.66
2018-11-28T20:42:46.946Z,98409.95
2018-11-28T20:45:15.570Z,98408.00
2018-11-28T20:47:44.105Z,98402.84
2018-11-28T20:50:24.425Z,98406.03
2018-11-28T20:52:55.105Z,98415.18
2018-11-28T20:55:23.296Z,98424.02
2018-11-28T20:57:51.838Z,98421.40
2018-11-28T21:00:21.893Z,98428.79
2018-11-28T21:02:51.137Z,98220.45
2018-11-28T21:05:19.694Z,98428.69
2018-11-28T21:07:48.217Z,98418.12
2018-11-28T21:10:22.290Z,98430.45
2018-11-28T21:12:50.795Z,98435.19
2018-11-28T21:15:19.307Z,98428.81
2018-11-28T21:17:48.053Z,98416.82
2018-11-28T21:20:20.185Z,98403.05
2018-11-28T21:22:54.998Z,98399.71
2018-11-28T21:25:23.507Z,98400.58
2018-11-28T21:27:52.022Z,98404.23
2018-11-28T21:30:21.418Z,98402.31
2018-11-28T21:32:51.159Z,98399.84
2018-11-28T21:35:21.615Z,98399.63
2018-11-28T21:37:50.122Z,98398.98
2018-11-28T21:40:18.632Z,98409.05
2018-11-28T21:42:47.512Z,98411.00
2018-11-28T21:45:17.239Z,98417.19
2018-11-28T21:47:45.766Z,98410.33
2018-11-28T21:50:16.073Z,98402.88
2018-11-28T21:52:44.658Z,98396.34
2018-11-28T21:55:18.160Z,98396.66
2018-11-28T21:57:46.685Z,98397.73
2018-11-28T22:00:29.808Z,98405.88
2018-11-28T22:02:58.328Z,98408.87
2018-11-28T22:05:27.898Z,98410.63
2018-11-28T22:07:56.517Z,98420.72
2018-11-28T22:10:26.357Z,98418.80
2018-11-28T22:12:56.281Z,98418.42
2018-11-28T22:15:24.884Z,98082.13
2018-11-28T22:17:55.541Z,98406.27
2018-11-28T22:20:24.773Z,98416.20
2018-11-28T22:22:53.465Z,98424.86
2018-11-28T22:25:24.762Z,98430.48
2018-11-28T22:27:53.324Z,98422.87
2018-11-28T22:30:24.766Z,98406.98
2018-11-28T22:32:53.303Z,98396.03
2018-11-28T22:35:21.817Z,98388.55
2018-11-28T22:37:50.319Z,98401.11
2018-11-28T22:40:24.049Z,98404.63
2018-11-28T22:42:52.550Z,98395.11
2018-11-28T22:45:25.125Z,98391.89
2018-11-28T22:47:53.726Z,98388.73
2018-11-28T22:50:22.274Z,98378.34
2018-11-28T22:52:50.778Z,98379.00
2018-11-28T22:55:19.474Z,98371.05
2018-11-28T22:57:47.989Z,98376.55
2018-11-28T23:00:17.538Z,98383.45
2018-11-28T23:02:54.324Z,98387.13
2018-11-28T23:05:24.526Z,98390.97
2018-11-28T23:07:53.018Z,98395.23
2018-11-28T23:10:21.546Z,98395.77
2018-11-28T23:12:50.125Z,98386.94
2018-11-28T23:15:18.646Z,98373.89
2018-11-28T23:17:47.177Z,98366.67
2018-11-28T23:20:15.722Z,98364.23
2018-11-28T23:22:44.212Z,98363.68
2018-11-28T23:25:13.090Z,98361.36
2018-11-28T23:27:41.584Z,98365.75
2018-11-28T23:30:14.431Z,98365.23
2018-11-28T23:32:42.951Z,98363.49
2018-11-28T23:35:11.973Z,98357.98
2018-11-28T23:37:41.484Z,98350.56
2018-11-28T23:40:26.791Z,98342.62
2018-11-28T23:42:55.889Z,98322.80
2018-11-28T23:45:24.960Z,98321.91
2018-11-28T23:47:53.492Z,98327.02
2018-11-28T23:50:22.715Z,98339.89
2018-11-28T23:52:52.364Z,98342.73
2018-11-28T23:55:21.745Z,98339.39
2018-11-28T23:57:50.264Z,98344.36
